Time;durP1;ratioP1;P1;durP2;ratioP2;P2;SDS_P1;SDS_P2;PMS_P1;PMS_P2;Temp;Humidity;BMP_temperature;BMP_pressure;BME280_temperature;BME280_humidity;BME280_pressure;Samples;Min_cycle;Max_cycle;Signal;HPM_P1;HPM_P2
2023/08/18 00:01:24;;;;;;;3.83;1.80;;;20.30;92.00;;;;;;6104400;23;20080;-79
2023/08/18 00:03:50;;;;;;;3.60;1.90;;;20.30;92.00;;;;;;6104196;23;20596;-80
2023/08/18 00:06:15;;;;;;;3.10;2.00;;;20.30;92.00;;;;;;6131108;23;20049;-79
2023/08/18 00:08:42;;;;;;;4.03;2.08;;;20.30;92.00;;;;;;6131026;23;20416;-79
2023/08/18 00:11:08;;;;;;;4.43;2.10;;;20.30;92.00;;;;;;6105303;23;20014;-79
2023/08/18 00:13:33;;;;;;;3.63;2.10;;;20.30;92.10;;;;;;6129597;23;20069;-80
2023/08/18 00:15:59;;;;;;;4.03;2.00;;;20.30;92.10;;;;;;6104430;23;20420;-80
2023/08/18 00:18:24;;;;;;;4.10;2.20;;;20.30;92.10;;;;;;6130459;23;20034;-79
2023/08/18 00:20:50;;;;;;;4.22;2.05;;;20.30;92.10;;;;;;6130774;23;20006;-80
2023/08/18 00:23:16;;;;;;;3.58;2.00;;;20.30;92.10;;;;;;6130151;23;20056;-79
2023/08/18 00:25:42;;;;;;;4.20;2.08;;;20.20;92.10;;;;;;6103378;23;19998;-80
2023/08/18 00:28:07;;;;;;;4.78;2.00;;;20.20;92.10;;;;;;6128963;23;20064;-79
2023/08/18 00:30:33;;;;;;;4.00;2.10;;;20.30;92.10;;;;;;6102833;23;20025;-79
2023/08/18 00:32:58;;;;;;;4.13;2.10;;;20.20;92.10;;;;;;6102598;23;20132;-78
2023/08/18 00:35:24;;;;;;;4.38;2.03;;;20.20;92.10;;;;;;6128765;23;20048;-79
2023/08/18 00:37:49;;;;;;;3.55;1.90;;;20.20;92.10;;;;;;6102560;23;19993;-79
2023/08/18 00:40:16;;;;;;;4.43;2.00;;;20.30;92.30;;;;;;6102647;23;19998;-78
2023/08/18 00:42:42;;;;;;;4.45;1.90;;;20.20;92.10;;;;;;6102502;23;20080;-79
2023/08/18 00:45:08;;;;;;;3.85;2.00;;;20.30;92.10;;;;;;6101797;23;20008;-79
2023/08/18 00:47:36;;;;;;;4.57;2.30;;;20.30;92.10;;;;;;6101920;23;19998;-79
2023/08/18 00:50:02;;;;;;;3.10;2.05;;;20.30;92.00;;;;;;6102189;23;19998;-79
2023/08/18 00:52:28;;;;;;;3.88;2.10;;;20.30;92.00;;;;;;6127813;23;20002;-79
2023/08/18 00:54:54;;;;;;;3.38;1.85;;;20.30;92.00;;;;;;6100555;23;20332;-78
2023/08/18 00:57:20;;;;;;;3.15;1.80;;;20.30;91.90;;;;;;6101789;23;20006;-79
2023/08/18 00:59:46;;;;;;;4.43;1.80;;;20.30;91.90;;;;;;6127526;23;19998;-79
2023/08/18 01:02:12;;;;;;;3.65;2.00;;;20.30;92.10;;;;;;6100977;23;20045;-79
2023/08/18 01:04:38;;;;;;;4.95;2.00;;;20.30;91.90;;;;;;6100769;23;20002;-79
2023/08/18 01:07:04;;;;;;;4.78;2.13;;;20.30;91.90;;;;;;6101465;23;20005;-79
2023/08/18 01:09:31;;;;;;;3.53;1.88;;;20.40;91.90;;;;;;6101033;23;20002;-78
2023/08/18 01:11:56;;;;;;;3.60;1.90;;;20.40;91.90;;;;;;6101006;23;19998;-78
2023/08/18 01:14:27;;;;;;;4.80;2.25;;;20.40;91.90;;;;;;6100824;23;20049;-78
2023/08/18 01:17:04;;;;;;;3.95;2.00;;;20.40;91.90;;;;;;6100852;23;20005;-79
2023/08/18 01:19:30;;;;;;;3.67;1.90;;;20.30;91.90;;;;;;6127607;23;20001;-79
2023/08/18 01:21:57;;;;;;;4.47;2.40;;;20.30;91.90;;;;;;6101073;23;19998;-78
2023/08/18 01:24:24;;;;;;;3.25;1.98;;;20.30;91.90;;;;;;6100562;23;19998;-78
2023/08/18 01:26:51;;;;;;;4.05;2.00;;;20.30;92.00;;;;;;6127062;23;19994;-79
2023/08/18 01:29:18;;;;;;;4.15;1.90;;;20.30;92.10;;;;;;6100957;23;19998;-78
2023/08/18 01:31:44;;;;;;;3.00;1.65;;;20.20;92.00;;;;;;6127530;23;20002;-79
2023/08/18 01:34:14;;;;;;;3.10;1.80;;;20.20;92.10;;;;;;6100611;23;20001;-79
2023/08/18 01:36:43;;;;;;;3.53;1.90;;;20.20;92.10;;;;;;6101008;23;20086;-80
2023/08/18 01:39:11;;;;;;;2.78;1.88;;;20.20;92.10;;;;;;6100722;23;20429;-79
2023/08/18 01:41:37;;;;;;;3.17;1.55;;;20.20;92.10;;;;;;6127098;23;19998;-78
2023/08/18 01:44:06;;;;;;;3.28;1.80;;;20.20;92.10;;;;;;6100223;23;20002;-78
2023/08/18 01:46:32;;;;;;;3.13;1.77;;;20.20;92.10;;;;;;6100570;23;20085;-78
2023/08/18 01:48:57;;;;;;;3.90;2.00;;;20.20;92.10;;;;;;6102938;23;20002;-79
2023/08/18 01:51:23;;;;;;;3.58;2.00;;;20.20;92.10;;;;;;6130020;23;19994;-78
2023/08/18 01:53:48;;;;;;;3.83;1.98;;;20.20;92.10;;;;;;6103103;23;20014;-78
2023/08/18 01:56:14;;;;;;;4.45;1.98;;;20.20;92.10;;;;;;6130004;23;19998;-79
2023/08/18 01:58:39;;;;;;;4.13;1.92;;;20.20;92.10;;;;;;6129953;23;20004;-79
2023/08/18 02:01:05;;;;;;;4.13;2.15;;;20.20;92.10;;;;;;6103816;23;20005;-78
2023/08/18 02:03:31;;;;;;;4.57;2.22;;;20.20;92.10;;;;;;6103355;23;20002;-76
2023/08/18 02:05:56;;;;;;;3.63;2.00;;;20.20;92.10;;;;;;6129795;23;20140;-78
2023/08/18 02:08:22;;;;;;;3.05;1.70;;;20.20;92.20;;;;;;6129558;23;19993;-79
2023/08/18 02:10:48;;;;;;;4.10;1.95;;;20.20;92.20;;;;;;6129497;23;20002;-80
2023/08/18 02:13:14;;;;;;;3.67;2.05;;;20.20;92.20;;;;;;6103557;23;20033;-78
2023/08/18 02:15:40;;;;;;;4.53;2.33;;;20.20;92.20;;;;;;6127583;23;20002;-78
2023/08/18 02:18:05;;;;;;;3.70;2.00;;;20.20;92.10;;;;;;6129304;23;20009;-78
2023/08/18 02:20:31;;;;;;;4.32;2.00;;;20.20;92.10;;;;;;6103433;23;20488;-78
2023/08/18 02:22:57;;;;;;;4.40;2.20;;;20.20;92.10;;;;;;6103607;23;20001;-79
2023/08/18 02:25:23;;;;;;;3.30;1.88;;;20.20;92.10;;;;;;6103108;23;20453;-78
2023/08/18 02:27:48;;;;;;;3.28;2.00;;;20.30;92.10;;;;;;6129273;23;20005;-78
2023/08/18 02:30:14;;;;;;;3.17;1.80;;;20.30;92.00;;;;;;6129414;23;19994;-78
2023/08/18 02:32:39;;;;;;;3.28;2.03;;;20.30;92.00;;;;;;6103455;23;20006;-79
2023/08/18 02:35:05;;;;;;;3.33;1.90;;;20.30;92.00;;;;;;6129410;23;20040;-78
2023/08/18 02:37:31;;;;;;;2.90;1.80;;;20.30;91.90;;;;;;6103647;23;20002;-78
2023/08/18 02:39:57;;;;;;;3.17;1.63;;;20.30;91.90;;;;;;6103404;23;20013;-78
2023/08/18 02:42:23;;;;;;;4.07;2.13;;;20.30;91.90;;;;;;6128777;23;20006;-78
2023/08/18 02:44:48;;;;;;;3.05;1.80;;;20.30;91.90;;;;;;6128933;23;19994;-79
2023/08/18 02:47:16;;;;;;;3.85;2.03;;;20.30;91.90;;;;;;6103439;23;19998;-78
2023/08/18 02:49:41;;;;;;;3.00;1.83;;;20.30;91.90;;;;;;6103429;23;19998;-78
2023/08/18 02:52:08;;;;;;;3.28;1.77;;;20.30;92.00;;;;;;6103109;23;20037;-78
2023/08/18 02:54:33;;;;;;;3.47;1.80;;;20.30;92.00;;;;;;6128274;23;20006;-78
2023/08/18 02:56:59;;;;;;;3.95;1.95;;;20.30;92.00;;;;;;6129136;23;20006;-78
2023/08/18 02:59:26;;;;;;;3.35;1.90;;;20.30;92.00;;;;;;6102097;23;20045;-78
2023/08/18 03:01:52;;;;;;;3.45;1.85;;;20.30;92.10;;;;;;6101448;23;20004;-79
2023/08/18 03:04:17;;;;;;;3.45;1.85;;;20.20;92.10;;;;;;6101571;23;20077;-78
2023/08/18 03:06:43;;;;;;;3.35;1.58;;;20.20;92.10;;;;;;6101633;23;20005;-79
2023/08/18 03:09:08;;;;;;;2.97;1.70;;;20.20;92.10;;;;;;6102912;23;19994;-80
2023/08/18 03:11:34;;;;;;;3.08;1.70;;;20.20;92.10;;;;;;6104560;23;20001;-80
2023/08/18 03:13:59;;;;;;;3.50;1.90;;;20.20;92.10;;;;;;6103533;23;20032;-79
2023/08/18 03:16:25;;;;;;;3.20;1.83;;;20.20;92.10;;;;;;6104236;23;20451;-80
2023/08/18 03:18:50;;;;;;;3.47;1.98;;;20.20;92.20;;;;;;6103781;23;20085;-79
2023/08/18 03:21:16;;;;;;;3.15;1.95;;;20.20;92.20;;;;;;6130023;23;20056;-79
2023/08/18 03:23:41;;;;;;;4.90;2.10;;;20.20;92.20;;;;;;6103055;23;20085;-78
2023/08/18 03:26:07;;;;;;;3.65;2.05;;;20.10;92.10;;;;;;6104721;23;19994;-79
2023/08/18 03:28:38;;;;;;;2.95;1.77;;;20.20;92.20;;;;;;6103597;23;20033;-79
2023/08/18 03:31:06;;;;;;;3.38;2.00;;;20.20;92.20;;;;;;6130007;23;20072;-80
2023/08/18 03:33:32;;;;;;;3.67;2.05;;;20.20;92.20;;;;;;6131521;23;20005;-79
2023/08/18 03:35:58;;;;;;;4.00;2.00;;;20.20;92.20;;;;;;6106536;23;20032;-80
2023/08/18 03:38:24;;;;;;;3.20;2.08;;;20.20;92.20;;;;;;6132232;23;20426;-81
2023/08/18 03:40:55;;;;;;;2.88;1.88;;;20.20;92.20;;;;;;6106459;23;20002;-80
2023/08/18 03:43:21;;;;;;;2.78;1.73;;;20.20;92.20;;;;;;6105474;23;20030;-78
2023/08/18 03:45:47;;;;;;;3.53;1.90;;;20.20;92.20;;;;;;6104054;23;19998;-79
2023/08/18 03:48:12;;;;;;;3.17;1.90;;;20.20;92.20;;;;;;6130907;23;19998;-79
2023/08/18 03:50:39;;;;;;;3.78;1.90;;;20.20;92.20;;;;;;6104519;23;20112;-79
2023/08/18 03:53:04;;;;;;;4.72;2.10;;;20.20;92.20;;;;;;6103879;23;20005;-80
2023/08/18 03:55:30;;;;;;;4.03;2.13;;;20.20;92.20;;;;;;6105575;23;20069;-79
2023/08/18 03:57:55;;;;;;;3.25;2.08;;;20.20;92.20;;;;;;6104496;23;20009;-79
2023/08/18 04:00:21;;;;;;;2.85;1.83;;;20.20;92.10;;;;;;6104560;23;20002;-80
2023/08/18 04:02:47;;;;;;;3.10;1.70;;;20.20;92.10;;;;;;6130148;23;20010;-79
2023/08/18 04:05:13;;;;;;;2.90;1.83;;;20.30;92.30;;;;;;6129350;23;20008;-79
2023/08/18 04:07:39;;;;;;;4.03;2.08;;;20.30;92.00;;;;;;6129499;23;20485;-78
2023/08/18 04:10:05;;;;;;;3.28;2.00;;;20.30;92.00;;;;;;6103840;23;19998;-79
2023/08/18 04:12:31;;;;;;;3.30;1.88;;;20.30;92.00;;;;;;6103354;23;20006;-78
2023/08/18 04:14:56;;;;;;;3.30;2.00;;;20.30;92.00;;;;;;6128165;23;20033;-79
2023/08/18 04:17:22;;;;;;;2.83;1.60;;;20.30;92.00;;;;;;6102712;23;19998;-79
2023/08/18 04:19:47;;;;;;;3.67;1.90;;;20.30;91.90;;;;;;6103305;23;20048;-78
2023/08/18 04:22:13;;;;;;;3.33;1.95;;;20.30;92.00;;;;;;6102899;23;20088;-79
2023/08/18 04:24:39;;;;;;;3.60;1.95;;;20.30;92.00;;;;;;6128334;23;20425;-79
2023/08/18 04:27:04;;;;;;;3.92;2.10;;;20.30;92.00;;;;;;6102322;23;20010;-80
2023/08/18 04:29:30;;;;;;;2.90;1.77;;;20.30;92.00;;;;;;6103081;23;20418;-79
2023/08/18 04:31:55;;;;;;;3.38;1.90;;;20.20;92.00;;;;;;6102299;23;20052;-78
2023/08/18 04:34:21;;;;;;;4.55;2.28;;;20.20;92.10;;;;;;6128339;23;20065;-78
2023/08/18 04:36:46;;;;;;;3.22;1.88;;;20.20;92.20;;;;;;6102780;23;20004;-78
2023/08/18 04:39:12;;;;;;;2.78;1.70;;;20.20;92.10;;;;;;6102417;23;20006;-78
2023/08/18 04:41:37;;;;;;;3.33;1.85;;;20.20;92.20;;;;;;6126070;23;20021;-81
2023/08/18 04:44:45;;;;;;;2.33;1.60;;;20.20;92.20;;;;;;6123792;23;20014;-81
2023/08/18 04:47:13;;;;;;;3.83;2.05;;;20.40;92.20;;;;;;6113376;23;20429;-81
2023/08/18 04:49:39;;;;;;;3.88;2.00;;;20.30;92.20;;;;;;6123995;23;19998;-80
2023/08/18 04:52:05;;;;;;;2.97;1.63;;;20.70;92.30;;;;;;6123879;23;20013;-84
2023/08/18 04:55:17;;;;;;;;;;;;;;;;;;;;;
2023/08/18 04:57:49;;;;;;;3.28;1.80;;;20.20;92.20;;;;;;6125707;23;20626;-80
2023/08/18 05:00:17;;;;;;;4.35;1.92;;;20.20;92.20;;;;;;6123186;23;20002;-85
2023/08/18 05:02:49;;;;;;;3.03;1.80;;;20.20;92.20;;;;;;6122914;23;20017;-79
2023/08/18 05:05:30;;;;;;;;;;;20.10;92.20;;;;;;6124676;23;20433;-80
2023/08/18 05:07:56;;;;;;;3.38;1.98;;;20.10;92.20;;;;;;6125076;23;20232;-81
2023/08/18 05:10:24;;;;;;;4.13;2.28;;;20.80;92.40;;;;;;6122672;23;19997;-84
2023/08/18 05:12:50;;;;;;;3.38;2.00;;;20.00;92.20;;;;;;6122950;23;20472;-83
2023/08/18 05:15:16;;;;;;;3.10;1.80;;;20.20;92.20;;;;;;6122597;23;20006;-83
2023/08/18 05:17:42;;;;;;;3.60;1.90;;;20.10;92.20;;;;;;6124230;23;20006;-84
2023/08/18 05:20:08;;;;;;;4.10;2.30;;;21.30;92.50;;;;;;6122924;23;20010;-82
2023/08/18 05:22:33;;;;;;;3.72;2.15;;;20.10;92.20;;;;;;6121585;23;20002;-81
2023/08/18 05:24:59;;;;;;;3.80;2.05;;;20.20;92.20;;;;;;6122115;23;20017;-82
2023/08/18 05:27:25;;;;;;;3.22;2.08;;;20.10;92.40;;;;;;6124165;23;20429;-82
2023/08/18 05:29:51;;;;;;;4.55;2.10;;;20.10;92.20;;;;;;6124596;23;20009;-80
2023/08/18 05:32:16;;;;;;;3.50;2.10;;;20.10;92.20;;;;;;6122280;23;20013;-83
2023/08/18 05:34:42;;;;;;;3.63;2.08;;;20.20;92.20;;;;;;6122939;23;20060;-85
2023/08/18 05:37:07;;;;;;;3.20;1.70;;;20.20;92.10;;;;;;6122110;23;20002;-79
2023/08/18 05:39:33;;;;;;;3.40;1.92;;;20.20;92.10;;;;;;6123128;23;20002;-82
2023/08/18 05:41:58;;;;;;;4.07;2.20;;;20.30;92.10;;;;;;6122713;23;20498;-87
2023/08/18 05:44:24;;;;;;;3.67;2.10;;;20.30;92.00;;;;;;6122253;23;20014;-84
2023/08/18 05:46:49;;;;;;;3.67;2.10;;;20.30;92.00;;;;;;6124876;23;19998;-82
2023/08/18 05:49:15;;;;;;;3.70;2.10;;;20.30;92.20;;;;;;6123657;23;19993;-81
2023/08/18 05:51:44;;;;;;;4.05;2.30;;;20.30;92.00;;;;;;6125101;23;20018;-81
2023/08/18 05:54:57;;;;;;;3.97;2.20;;;20.20;91.90;;;;;;6122396;23;20017;-81
2023/08/18 06:37:48;;;;;;;4.32;2.20;;;20.10;92.20;;;;;;6129161;23;20026;-82
2023/08/18 06:57:52;;;;;;;4.63;2.45;;;20.00;92.20;;;;;;5923933;24;20036;-82
2023/08/18 07:17:57;;;;;;;;;;;;;;;;;;;;;
2023/08/18 07:21:09;;;;;;;4.28;2.22;;;20.30;92.00;;;;;;6029619;23;20087;-81
2023/08/18 08:40:20;;;;;;;;;;;;;;;;;;;;;
2023/08/18 08:49:09;;;;;;;6.18;3.80;;;20.30;92.10;;;;;;6124951;23;20005;-81
2023/08/18 08:52:07;;;;;;;7.03;3.88;;;20.30;92.10;;;;;;6098758;23;20002;-83
2023/08/18 09:02:30;;;;;;;6.13;3.17;;;20.30;92.00;;;;;;5952092;24;20033;-81
2023/08/18 09:05:28;;;;;;;6.22;3.53;;;20.30;92.00;;;;;;5926839;24;20017;-81
2023/08/18 09:15:25;;;;;;;6.03;3.22;;;20.30;92.00;;;;;;5949915;24;20080;-79
2023/08/18 09:17:59;;;;;;;5.72;3.17;;;20.30;92.00;;;;;;5951362;24;20016;-81
2023/08/18 09:20:24;;;;;;;5.75;3.20;;;20.30;92.10;;;;;;5951586;24;20064;-80
2023/08/18 09:22:56;;;;;;;6.22;3.28;;;20.20;92.00;;;;;;6037898;23;20002;-81
2023/08/18 09:25:22;;;;;;;6.18;3.53;;;20.30;92.10;;;;;;6092868;23;20011;-81
2023/08/18 09:27:48;;;;;;;5.65;3.20;;;20.30;92.10;;;;;;6092855;23;20030;-82
2023/08/18 09:30:14;;;;;;;5.20;3.00;;;20.30;92.10;;;;;;6093059;23;20429;-81
2023/08/18 09:32:41;;;;;;;5.82;3.40;;;20.30;92.10;;;;;;6094093;23;20453;-83
2023/08/18 09:35:19;;;;;;;6.28;3.38;;;20.30;92.00;;;;;;6092919;23;20010;-81
2023/08/18 09:37:46;;;;;;;6.32;3.50;;;20.40;92.10;;;;;;6094550;23;20010;-81
2023/08/18 09:40:11;;;;;;;5.88;3.55;;;20.40;92.10;;;;;;6092542;23;20029;-82
2023/08/18 09:42:37;;;;;;;7.95;4.65;;;20.40;92.20;;;;;;6092452;23;20007;-81
2023/08/18 09:45:02;;;;;;;12.20;4.97;;;20.40;92.80;;;;;;6119257;23;20358;-80
2023/08/18 09:47:30;;;;;;;11.30;5.50;;;20.50;93.30;;;;;;6098557;23;20397;-83
2023/08/18 09:49:58;;;;;;;12.55;8.15;;;20.50;93.70;;;;;;6096758;23;20030;-81
2023/08/18 09:52:28;;;;;;;12.02;7.13;;;20.50;94.50;;;;;;6125043;23;20013;-82
2023/08/18 09:55:18;;;;;;;11.60;7.47;;;20.60;94.60;;;;;;6098283;23;20001;-86
2023/08/18 09:57:55;;;;;;;13.75;8.95;;;20.60;94.20;;;;;;6098925;23;20013;-81
2023/08/18 10:00:23;;;;;;;12.35;9.00;;;20.60;94.30;;;;;;6100147;23;20033;-83
2023/08/18 10:02:52;;;;;;;12.77;9.40;;;20.70;94.60;;;;;;6104691;23;20045;-84
2023/08/18 10:05:18;;;;;;;12.65;9.50;;;20.70;94.60;;;;;;6107692;23;20002;-85
2023/08/18 10:07:45;;;;;;;12.48;9.68;;;20.80;94.40;;;;;;6103403;23;20002;-82
2023/08/18 10:10:12;;;;;;;14.68;10.63;;;20.80;94.50;;;;;;6132295;23;20002;-84
2023/08/18 10:12:37;;;;;;;15.18;10.90;;;20.80;95.00;;;;;;6108876;23;20016;-83
2023/08/18 10:15:03;;;;;;;14.50;12.07;;;20.90;95.50;;;;;;6134537;23;19998;-83
2023/08/18 10:17:29;;;;;;;15.50;12.35;;;21.00;96.10;;;;;;6110044;23;20013;-83
2023/08/18 10:19:56;;;;;;;15.18;10.80;;;21.10;96.90;;;;;;6135545;23;20017;-83
2023/08/18 10:22:24;;;;;;;16.77;12.23;;;21.20;96.50;;;;;;6135019;23;20029;-82
2023/08/18 10:24:51;;;;;;;17.42;12.65;;;21.20;96.90;;;;;;6138966;23;20002;-85
2023/08/18 10:27:26;;;;;;;15.55;12.52;;;21.30;97.40;;;;;;6110519;23;20349;-84
2023/08/18 10:30:01;;;;;;;15.40;11.43;;;21.30;96.20;;;;;;6105539;23;20045;-80
2023/08/18 10:32:27;;;;;;;13.70;12.02;;;21.30;97.10;;;;;;6098877;23;20377;-82
2023/08/18 10:35:13;;;;;;;14.65;11.80;;;21.40;96.90;;;;;;6108048;23;20006;-85
2023/08/18 10:37:38;;;;;;;15.80;12.50;;;21.40;97.70;;;;;;6108389;23;20021;-82
2023/08/18 10:40:08;;;;;;;15.88;12.68;;;21.30;97.50;;;;;;6130966;23;20002;-86
2023/08/18 10:42:33;;;;;;;13.82;11.77;;;21.40;97.80;;;;;;6128856;23;20045;-85
2023/08/18 10:45:21;;;;;;;15.27;12.07;;;21.40;97.90;;;;;;6103144;23;20305;-85
2023/08/18 10:47:46;;;;;;;15.48;12.52;;;21.40;97.80;;;;;;6102955;23;20077;-85
2023/08/18 10:50:14;;;;;;;18.75;12.98;;;21.40;98.20;;;;;;6100869;23;20013;-80
2023/08/18 10:52:40;;;;;;;14.90;12.52;;;21.40;97.70;;;;;;6101035;23;20404;-85
2023/08/18 10:55:06;;;;;;;14.93;12.02;;;21.40;97.40;;;;;;6100210;23;20009;-82
2023/08/18 10:57:33;;;;;;;15.43;11.98;;;21.40;96.90;;;;;;6100915;23;20413;-86
2023/08/18 10:59:59;;;;;;;16.20;12.45;;;21.30;96.70;;;;;;6127204;23;20010;-82
2023/08/18 11:02:25;;;;;;;14.35;12.02;;;21.30;96.40;;;;;;6125919;23;20271;-84
2023/08/18 11:04:53;;;;;;;14.35;11.88;;;21.30;96.50;;;;;;6097903;23;20002;-83
2023/08/18 11:07:19;;;;;;;18.70;11.70;;;21.20;96.30;;;;;;6125704;23;20060;-81
2023/08/18 11:09:45;;;;;;;16.02;11.85;;;21.30;96.00;;;;;;6125430;23;20002;-83
2023/08/18 11:12:10;;;;;;;17.73;10.93;;;21.10;96.00;;;;;;6097972;23;20298;-81
2023/08/18 11:14:36;;;;;;;17.58;11.02;;;21.10;95.80;;;;;;6097952;23;20389;-81
2023/08/18 11:17:02;;;;;;;16.73;11.77;;;22.00;96.10;;;;;;6098469;23;20060;-83
2023/08/18 11:19:33;;;;;;;16.42;11.38;;;21.20;96.20;;;;;;6098973;23;20425;-82
2023/08/18 11:21:59;;;;;;;17.05;11.07;;;21.60;95.90;;;;;;6122482;23;20349;-81
2023/08/18 11:24:36;;;;;;;14.38;10.57;;;21.00;95.50;;;;;;6097295;23;20009;-85
2023/08/18 11:27:04;;;;;;;17.05;11.50;;;21.90;95.60;;;;;;6096602;23;20012;-83
2023/08/18 11:29:29;;;;;;;16.35;10.63;;;21.10;95.40;;;;;;6122624;23;20009;-80
2023/08/18 11:31:55;;;;;;;15.77;10.73;;;21.20;95.50;;;;;;6122655;23;20006;-87
2023/08/18 11:34:21;;;;;;;18.40;10.65;;;21.10;95.40;;;;;;6095608;23;20097;-79
2023/08/18 11:36:47;;;;;;;28.92;11.60;;;21.20;95.30;;;;;;6122066;23;20392;-81
2023/08/18 11:39:12;;;;;;;28.00;12.07;;;21.30;95.50;;;;;;6096871;23;20021;-82
2023/08/18 11:41:43;;;;;;;28.88;11.13;;;21.30;95.40;;;;;;6097819;23;20487;-81
2023/08/18 11:44:09;;;;;;;24.92;10.77;;;21.30;94.90;;;;;;6096931;23;20022;-80
2023/08/18 11:46:39;;;;;;;21.48;11.25;;;21.40;95.10;;;;;;6097527;23;20002;-79
2023/08/18 11:49:18;;;;;;;18.13;11.63;;;21.60;96.90;;;;;;6097037;23;20085;-78
2023/08/18 11:52:03;;;;;;;14.73;10.95;;;21.80;96.90;;;;;;6122436;23;20056;-79
2023/08/18 11:54:32;;;;;;;18.88;12.23;;;21.90;97.00;;;;;;6096698;23;20401;-82
2023/08/18 11:56:58;;;;;;;14.63;11.88;;;22.00;96.60;;;;;;6122593;23;20006;-81
2023/08/18 11:59:24;;;;;;;17.15;12.57;;;22.00;96.90;;;;;;6096399;23;20029;-81
2023/08/18 12:01:55;;;;;;;15.77;11.82;;;21.90;96.60;;;;;;6096634;23;20006;-82
2023/08/18 12:04:28;;;;;;;14.27;10.88;;;21.80;96.40;;;;;;6121209;23;20426;-79
2023/08/18 12:06:54;;;;;;;13.27;10.55;;;21.70;96.50;;;;;;6095785;23;20013;-80
2023/08/18 12:09:21;;;;;;;12.75;11.05;;;21.80;96.30;;;;;;6096494;23;20066;-78
2023/08/18 12:11:47;;;;;;;14.05;11.00;;;21.50;96.40;;;;;;6123495;23;20005;-82
2023/08/18 12:14:12;;;;;;;14.63;11.35;;;21.60;97.10;;;;;;6099706;23;20012;-84
2023/08/18 12:16:38;;;;;;;15.00;11.52;;;21.80;97.30;;;;;;6126539;23;20338;-83
2023/08/18 12:19:07;;;;;;;14.35;10.70;;;21.70;97.20;;;;;;6123810;23;20012;-81
2023/08/18 12:21:33;;;;;;;13.75;11.18;;;21.70;97.30;;;;;;6098886;23;20149;-87
2023/08/18 12:24:06;;;;;;;16.98;11.30;;;21.70;97.70;;;;;;6096346;23;20013;-82
2023/08/18 12:26:32;;;;;;;13.05;10.48;;;21.60;97.10;;;;;;6098702;23;20382;-85
2023/08/18 12:28:57;;;;;;;14.98;11.13;;;21.60;96.80;;;;;;6099066;23;20002;-81
2023/08/18 12:31:24;;;;;;;13.25;10.07;;;21.50;96.70;;;;;;6099169;23;20009;-82
2023/08/18 12:33:53;;;;;;;13.77;11.07;;;21.50;96.50;;;;;;6099012;23;20441;-83
2023/08/18 12:36:19;;;;;;;12.45;10.18;;;21.50;96.60;;;;;;6124847;23;20015;-82
2023/08/18 12:38:48;;;;;;;13.43;10.23;;;21.40;96.50;;;;;;6123236;23;20010;-81
2023/08/18 12:41:14;;;;;;;14.63;10.13;;;21.50;96.50;;;;;;6122651;23;20010;-82
2023/08/18 12:55:32;;;;;;;;;;;;;;;;;;;;;
2023/08/18 13:01:22;;;;;;;14.75;11.18;;;22.50;97.30;;;;;;5922630;24;20016;-81
2023/08/18 13:03:47;;;;;;;13.88;11.32;;;23.00;97.10;;;;;;5919489;24;20013;-78
2023/08/18 13:06:13;;;;;;;12.38;11.07;;;22.10;97.10;;;;;;5941163;24;20016;-79
2023/08/18 13:08:39;;;;;;;14.60;11.63;;;22.40;97.40;;;;;;6019506;23;20001;-80
2023/08/18 13:11:04;;;;;;;12.63;10.68;;;22.20;97.70;;;;;;6128002;23;20008;-79
2023/08/18 13:13:30;;;;;;;12.68;10.45;;;22.00;97.60;;;;;;6128497;23;20010;-76
2023/08/18 13:15:55;;;;;;;12.90;11.13;;;21.90;97.90;;;;;;6128288;23;20346;-78
2023/08/18 13:18:21;;;;;;;13.60;10.98;;;21.80;97.80;;;;;;6125622;23;20013;-77
2023/08/18 13:20:46;;;;;;;14.02;11.05;;;21.80;97.90;;;;;;6129832;23;20002;-79
2023/08/18 13:23:12;;;;;;;12.15;10.15;;;21.70;97.80;;;;;;6128986;23;20006;-79
2023/08/18 13:25:38;;;;;;;16.55;10.98;;;21.90;97.80;;;;;;6128614;23;19998;-80
2023/08/18 13:28:04;;;;;;;14.50;11.05;;;21.90;97.40;;;;;;6101370;23;20002;-79
2023/08/18 13:30:29;;;;;;;13.35;10.40;;;21.90;97.30;;;;;;6128490;23;20433;-79
2023/08/18 13:32:55;;;;;;;12.68;10.25;;;21.90;97.20;;;;;;6128158;23;20002;-77
2023/08/18 13:35:21;;;;;;;13.55;10.00;;;21.80;97.20;;;;;;6123046;23;19998;-77
2023/08/18 13:37:47;;;;;;;13.73;10.20;;;21.70;97.00;;;;;;6127243;23;20002;-79
2023/08/18 13:40:12;;;;;;;13.00;10.27;;;21.60;97.10;;;;;;6101799;23;20013;-78
2023/08/18 13:42:38;;;;;;;14.13;10.25;;;21.60;97.20;;;;;;6125366;23;20464;-81
2023/08/18 13:45:04;;;;;;;13.20;10.20;;;21.50;97.20;;;;;;6124551;23;20045;-81
2023/08/18 13:47:29;;;;;;;14.25;9.88;;;21.50;97.30;;;;;;6125529;23;19998;-80
2023/08/18 13:49:55;;;;;;;11.48;10.20;;;21.40;97.30;;;;;;6102173;23;20081;-79
2023/08/18 13:52:20;;;;;;;13.85;9.93;;;21.40;97.30;;;;;;6126008;23;20073;-79
2023/08/18 13:54:46;;;;;;;12.63;10.30;;;21.40;97.10;;;;;;6127498;23;19998;-78
2023/08/18 13:57:11;;;;;;;11.82;9.90;;;21.40;97.00;;;;;;6127031;23;20081;-80
2023/08/18 13:59:37;;;;;;;12.70;9.95;;;21.30;96.90;;;;;;6104318;23;20002;-80
2023/08/18 14:02:03;;;;;;;12.23;10.18;;;21.40;97.10;;;;;;6131052;23;20051;-79
2023/08/18 14:04:28;;;;;;;12.10;9.95;;;21.40;96.80;;;;;;6128481;23;20052;-79
2023/08/18 14:06:56;;;;;;;10.70;9.50;;;21.30;96.80;;;;;;6099115;23;20002;-79
2023/08/18 14:09:23;;;;;;;11.50;9.40;;;21.30;96.90;;;;;;6101678;23;20002;-79
2023/08/18 14:11:48;;;;;;;12.13;10.10;;;21.30;96.80;;;;;;6101459;23;20057;-79
2023/08/18 14:14:14;;;;;;;10.57;9.30;;;21.30;96.80;;;;;;6100540;23;20005;-80
2023/08/18 14:16:40;;;;;;;11.05;9.68;;;21.30;96.70;;;;;;6126753;23;20503;-79
2023/08/18 14:19:06;;;;;;;11.63;9.65;;;21.20;96.60;;;;;;6100958;23;20409;-79
2023/08/18 14:21:31;;;;;;;11.38;9.60;;;21.20;96.60;;;;;;6101095;23;20013;-78
2023/08/18 14:23:57;;;;;;;11.40;9.23;;;21.20;96.60;;;;;;6100721;23;20013;-79
2023/08/18 14:26:22;;;;;;;10.75;8.70;;;21.20;96.60;;;;;;6101675;23;20005;-80
2023/08/18 14:28:48;;;;;;;11.70;9.32;;;21.20;96.60;;;;;;6101075;23;20015;-81
2023/08/18 14:31:14;;;;;;;11.25;8.85;;;21.20;96.60;;;;;;6102030;23;20457;-80
2023/08/18 14:33:39;;;;;;;10.63;8.70;;;21.20;96.60;;;;;;6125838;23;20221;-81
2023/08/18 14:36:06;;;;;;;19.00;9.50;;;21.20;96.60;;;;;;6101669;23;20097;-80
2023/08/18 14:38:31;;;;;;;19.45;9.68;;;21.20;96.80;;;;;;6125295;23;20001;-79
2023/08/18 14:40:57;;;;;;;14.68;9.02;;;21.30;96.90;;;;;;6125358;23;20010;-80
2023/08/18 14:43:22;;;;;;;15.77;8.65;;;21.30;96.90;;;;;;6098827;23;20077;-80
2023/08/18 14:45:48;;;;;;;13.50;8.50;;;21.30;97.00;;;;;;6124276;23;20041;-80
2023/08/18 14:48:14;;;;;;;15.02;9.10;;;21.30;96.80;;;;;;6124700;23;20434;-80
2023/08/18 14:50:40;;;;;;;16.13;9.27;;;21.30;96.90;;;;;;6098847;23;20496;-77
2023/08/18 14:53:07;;;;;;;14.85;9.05;;;21.30;96.60;;;;;;6098626;23;20056;-80
2023/08/18 14:55:32;;;;;;;16.05;8.85;;;21.30;96.50;;;;;;6098522;23;20355;-80
2023/08/18 14:57:58;;;;;;;15.90;9.25;;;21.30;96.50;;;;;;6100493;23;20006;-80
2023/08/18 15:00:23;;;;;;;16.73;8.65;;;21.30;96.40;;;;;;6126331;23;20024;-79
2023/08/18 15:02:49;;;;;;;13.45;8.52;;;21.30;96.30;;;;;;6100154;23;20010;-80
2023/08/18 15:05:16;;;;;;;14.50;8.70;;;21.20;96.40;;;;;;6100309;23;20006;-80
2023/08/18 15:07:41;;;;;;;14.18;8.50;;;21.20;96.30;;;;;;6126206;23;20414;-80
2023/08/18 15:10:07;;;;;;;14.90;8.75;;;21.20;96.30;;;;;;6100418;23;20037;-80
2023/08/18 15:12:33;;;;;;;15.65;8.13;;;21.20;96.30;;;;;;6126125;23;20009;-80
2023/08/18 15:14:58;;;;;;;15.05;8.35;;;21.20;96.30;;;;;;6099760;23;20009;-80
2023/08/18 15:17:24;;;;;;;14.25;7.75;;;21.20;96.30;;;;;;6100403;23;20009;-80
2023/08/18 15:19:49;;;;;;;15.52;8.35;;;21.20;96.30;;;;;;6100302;23;20092;-80
2023/08/18 15:22:15;;;;;;;11.15;8.10;;;21.10;96.20;;;;;;6100249;23;20013;-80
2023/08/18 15:24:41;;;;;;;12.27;8.13;;;21.10;96.20;;;;;;6100000;23;20088;-80
2023/08/18 15:27:06;;;;;;;12.27;8.13;;;21.10;96.20;;;;;;6099900;23;20005;-80
2023/08/18 15:29:32;;;;;;;16.90;8.23;;;21.10;96.20;;;;;;6126095;23;20060;-80
2023/08/18 15:31:58;;;;;;;13.95;8.15;;;21.10;96.20;;;;;;6100167;23;19998;-80
2023/08/18 15:34:24;;;;;;;12.60;7.53;;;21.10;96.20;;;;;;6099669;23;20085;-80
2023/08/18 15:36:49;;;;;;;13.07;8.23;;;21.00;96.20;;;;;;6100070;23;20049;-79
2023/08/18 15:39:15;;;;;;;12.95;8.00;;;21.10;96.20;;;;;;6126091;23;20006;-79
2023/08/18 15:41:41;;;;;;;13.48;8.15;;;21.10;96.10;;;;;;6126082;23;20002;-80
2023/08/18 15:44:07;;;;;;;12.75;8.07;;;21.10;96.10;;;;;;6125363;23;20009;-79
2023/08/18 15:46:33;;;;;;;11.50;7.75;;;21.00;96.10;;;;;;6100018;23;20085;-79
2023/08/18 15:48:59;;;;;;;11.90;7.82;;;21.00;96.10;;;;;;6125864;23;20374;-79
2023/08/18 15:51:24;;;;;;;11.82;7.70;;;21.00;96.00;;;;;;6126005;23;20342;-80
2023/08/18 15:53:50;;;;;;;9.75;7.57;;;21.00;96.10;;;;;;6099318;23;20013;-80